sensor_id;sensor_type;location;lat;lon;timestamp;temperature;humidity
11501;DHT22;5807;51.606;7.624;2022-09-21T00:02:00;7.50;99.90
11501;DHT22;5807;51.606;7.624;2022-09-21T00:04:27;7.50;99.90
11501;DHT22;5807;51.606;7.624;2022-09-21T00:06:53;7.50;99.90
11501;DHT22;5807;51.606;7.624;2022-09-21T00:09:20;7.50;99.90
11501;DHT22;5807;51.606;7.624;2022-09-21T00:11:47;8.50;99.90
11501;DHT22;5807;51.606;7.624;2022-09-21T00:14:42;7.50;99.90
11501;DHT22;5807;51.606;7.624;2022-09-21T00:17:09;7.50;99.90
11501;DHT22;5807;51.606;7.624;2022-09-21T00:19:36;7.40;99.90
11501;DHT22;5807;51.606;7.624;2022-09-21T00:22:03;7.40;99.90
11501;DHT22;5807;51.606;7.624;2022-09-21T00:24:30;7.40;99.90
11501;DHT22;5807;51.606;7.624;2022-09-21T00:26:57;7.40;99.90
11501;DHT22;5807;51.606;7.624;2022-09-21T00:39:13;7.10;99.90
11501;DHT22;5807;51.606;7.624;2022-09-21T00:41:40;7.10;99.90
11501;DHT22;5807;51.606;7.624;2022-09-21T00:44:23;7.10;99.90
11501;DHT22;5807;51.606;7.624;2022-09-21T00:46:54;7.10;99.90
11501;DHT22;5807;51.606;7.624;2022-09-21T00:51:50;7.00;99.90
11501;DHT22;5807;51.606;7.624;2022-09-21T00:54:22;7.40;99.90
11501;DHT22;5807;51.606;7.624;2022-09-21T00:56:51;7.00;99.90
11501;DHT22;5807;51.606;7.624;2022-09-21T00:59:19;7.00;99.90
11501;DHT22;5807;51.606;7.624;2022-09-21T01:01:46;7.10;99.90
11501;DHT22;5807;51.606;7.624;2022-09-21T01:04:15;6.90;99.90
11501;DHT22;5807;51.606;7.624;2022-09-21T01:06:43;6.80;99.90
11501;DHT22;5807;51.606;7.624;2022-09-21T01:09:13;7.80;99.90
11501;DHT22;5807;51.606;7.624;2022-09-21T01:11:46;6.80;99.90
11501;DHT22;5807;51.606;7.624;2022-09-21T01:14:29;8.30;99.90
11501;DHT22;5807;51.606;7.624;2022-09-21T01:17:05;6.70;99.90
11501;DHT22;5807;51.606;7.624;2022-09-21T01:20:14;6.70;99.90
11501;DHT22;5807;51.606;7.624;2022-09-21T01:22:58;6.70;99.90
11501;DHT22;5807;51.606;7.624;2022-09-21T01:25:40;6.60;99.90
11501;DHT22;5807;51.606;7.624;2022-09-21T01:28:20;7.80;99.90
11501;DHT22;5807;51.606;7.624;2022-09-21T01:30:50;6.40;99.90
11501;DHT22;5807;51.606;7.624;2022-09-21T01:33:23;6.40;99.90
11501;DHT22;5807;51.606;7.624;2022-09-21T01:35:54;6.40;99.90
11501;DHT22;5807;51.606;7.624;2022-09-21T01:38:23;6.40;99.90
11501;DHT22;5807;51.606;7.624;2022-09-21T01:40:55;6.40;99.90
11501;DHT22;5807;51.606;7.624;2022-09-21T01:43:26;6.40;99.90
11501;DHT22;5807;51.606;7.624;2022-09-21T01:45:57;6.40;99.90
11501;DHT22;5807;51.606;7.624;2022-09-21T01:51:03;6.40;99.90
11501;DHT22;5807;51.606;7.624;2022-09-21T01:53:33;6.30;99.90
11501;DHT22;5807;51.606;7.624;2022-09-21T01:56:06;6.30;99.90
11501;DHT22;5807;51.606;7.624;2022-09-21T01:58:38;6.30;99.90
11501;DHT22;5807;51.606;7.624;2022-09-21T02:01:13;6.30;99.90
11501;DHT22;5807;51.606;7.624;2022-09-21T02:03:44;6.30;99.90
11501;DHT22;5807;51.606;7.624;2022-09-21T02:06:14;6.30;99.90
11501;DHT22;5807;51.606;7.624;2022-09-21T02:08:41;6.20;99.90
11501;DHT22;5807;51.606;7.624;2022-09-21T02:11:08;6.60;99.90
11501;DHT22;5807;51.606;7.624;2022-09-21T02:13:40;6.20;99.90
11501;DHT22;5807;51.606;7.624;2022-09-21T02:16:29;6.30;99.90
11501;DHT22;5807;51.606;7.624;2022-09-21T02:19:08;6.20;99.90
11501;DHT22;5807;51.606;7.624;2022-09-21T02:21:46;6.20;99.90
11501;DHT22;5807;51.606;7.624;2022-09-21T02:24:23;6.10;99.90
11501;DHT22;5807;51.606;7.624;2022-09-21T02:26:57;6.10;99.90
11501;DHT22;5807;51.606;7.624;2022-09-21T02:29:32;6.20;99.90
11501;DHT22;5807;51.606;7.624;2022-09-21T02:32:06;6.10;99.90
11501;DHT22;5807;51.606;7.624;2022-09-21T02:34:39;6.20;99.90
11501;DHT22;5807;51.606;7.624;2022-09-21T02:37:15;6.20;99.90
11501;DHT22;5807;51.606;7.624;2022-09-21T02:39:49;6.20;99.90
11501;DHT22;5807;51.606;7.624;2022-09-21T02:42:22;6.20;99.90
11501;DHT22;5807;51.606;7.624;2022-09-21T02:44:56;6.20;99.90
11501;DHT22;5807;51.606;7.624;2022-09-21T02:47:30;6.10;99.90
11501;DHT22;5807;51.606;7.624;2022-09-21T02:50:03;6.10;99.90
11501;DHT22;5807;51.606;7.624;2022-09-21T02:52:33;6.00;99.90
11501;DHT22;5807;51.606;7.624;2022-09-21T02:55:03;6.00;99.90
11501;DHT22;5807;51.606;7.624;2022-09-21T02:57:30;6.00;99.90
11501;DHT22;5807;51.606;7.624;2022-09-21T02:59:57;6.00;99.90
11501;DHT22;5807;51.606;7.624;2022-09-21T03:02:37;5.90;99.90
11501;DHT22;5807;51.606;7.624;2022-09-21T03:05:05;5.90;99.90
11501;DHT22;5807;51.606;7.624;2022-09-21T03:09:59;5.90;99.90
11501;DHT22;5807;51.606;7.624;2022-09-21T03:12:26;5.60;99.90
11501;DHT22;5807;51.606;7.624;2022-09-21T03:14:53;6.00;99.90
11501;DHT22;5807;51.606;7.624;2022-09-21T03:17:20;5.80;99.90
11501;DHT22;5807;51.606;7.624;2022-09-21T03:24:46;5.80;99.90
11501;DHT22;5807;51.606;7.624;2022-09-21T03:27:15;6.60;99.90
11501;DHT22;5807;51.606;7.624;2022-09-21T03:29:42;5.70;99.90
11501;DHT22;5807;51.606;7.624;2022-09-21T03:32:09;5.70;99.90
11501;DHT22;5807;51.606;7.624;2022-09-21T03:37:07;5.60;99.90
11501;DHT22;5807;51.606;7.624;2022-09-21T03:39:34;5.60;99.90
11501;DHT22;5807;51.606;7.624;2022-09-21T03:44:29;5.60;99.90
11501;DHT22;5807;51.606;7.624;2022-09-21T03:46:55;5.50;99.90
11501;DHT22;5807;51.606;7.624;2022-09-21T03:49:23;5.50;99.90
11501;DHT22;5807;51.606;7.624;2022-09-21T03:51:49;5.50;99.90
11501;DHT22;5807;51.606;7.624;2022-09-21T03:54:18;5.50;99.90
11501;DHT22;5807;51.606;7.624;2022-09-21T03:56:45;5.50;99.90
11501;DHT22;5807;51.606;7.624;2022-09-21T03:59:12;5.50;99.90
11501;DHT22;5807;51.606;7.624;2022-09-21T04:01:39;5.00;99.90
11501;DHT22;5807;51.606;7.624;2022-09-21T04:06:17;5.90;99.90
11501;DHT22;5807;51.606;7.624;2022-09-21T04:08:44;5.40;99.90
11501;DHT22;5807;51.606;7.624;2022-09-21T04:11:12;5.40;99.90
11501;DHT22;5807;51.606;7.624;2022-09-21T04:13:39;5.40;99.90
11501;DHT22;5807;51.606;7.624;2022-09-21T04:16:07;5.30;99.90
11501;DHT22;5807;51.606;7.624;2022-09-21T04:18:34;5.40;99.90
11501;DHT22;5807;51.606;7.624;2022-09-21T04:21:02;5.40;99.90
11501;DHT22;5807;51.606;7.624;2022-09-21T04:25:58;5.30;99.90
11501;DHT22;5807;51.606;7.624;2022-09-21T04:28:25;5.30;99.90
11501;DHT22;5807;51.606;7.624;2022-09-21T04:30:52;5.30;99.90
11501;DHT22;5807;51.606;7.624;2022-09-21T04:33:20;5.30;99.90
11501;DHT22;5807;51.606;7.624;2022-09-21T04:35:53;5.30;99.90
11501;DHT22;5807;51.606;7.624;2022-09-21T04:38:20;5.30;99.90
11501;DHT22;5807;51.606;7.624;2022-09-21T04:40:55;5.30;99.90
11501;DHT22;5807;51.606;7.624;2022-09-21T04:45:50;5.20;99.90
11501;DHT22;5807;51.606;7.624;2022-09-21T04:48:17;5.20;99.90
11501;DHT22;5807;51.606;7.624;2022-09-21T04:50:47;5.10;99.90
11501;DHT22;5807;51.606;7.624;2022-09-21T04:53:14;6.20;99.90
11501;DHT22;5807;51.606;7.624;2022-09-21T04:55:41;5.10;99.90
11501;DHT22;5807;51.606;7.624;2022-09-21T05:00:36;5.00;99.90
11501;DHT22;5807;51.606;7.624;2022-09-21T05:07:57;5.00;99.90
11501;DHT22;5807;51.606;7.624;2022-09-21T05:10:24;4.90;99.90
11501;DHT22;5807;51.606;7.624;2022-09-21T05:17:46;5.00;99.90
11501;DHT22;5807;51.606;7.624;2022-09-21T05:22:40;5.00;99.90
11501;DHT22;5807;51.606;7.624;2022-09-21T05:25:08;5.00;99.90
11501;DHT22;5807;51.606;7.624;2022-09-21T05:27:35;5.00;99.90
11501;DHT22;5807;51.606;7.624;2022-09-21T05:30:03;4.90;99.90
11501;DHT22;5807;51.606;7.624;2022-09-21T05:32:40;4.90;99.90
11501;DHT22;5807;51.606;7.624;2022-09-21T05:35:15;5.40;99.90
11501;DHT22;5807;51.606;7.624;2022-09-21T05:37:47;4.80;99.90
11501;DHT22;5807;51.606;7.624;2022-09-21T05:40:16;4.80;99.90
11501;DHT22;5807;51.606;7.624;2022-09-21T05:42:44;4.90;99.90
11501;DHT22;5807;51.606;7.624;2022-09-21T05:45:16;4.90;99.90
11501;DHT22;5807;51.606;7.624;2022-09-21T05:47:52;4.90;99.90
11501;DHT22;5807;51.606;7.624;2022-09-21T05:50:35;4.90;99.90
11501;DHT22;5807;51.606;7.624;2022-09-21T05:53:16;4.90;99.90
11501;DHT22;5807;51.606;7.624;2022-09-21T05:55:52;5.00;99.90
11501;DHT22;5807;51.606;7.624;2022-09-21T05:58:26;5.10;99.90
11501;DHT22;5807;51.606;7.624;2022-09-21T06:01:03;5.10;99.90
11501;DHT22;5807;51.606;7.624;2022-09-21T06:06:01;5.30;99.90
11501;DHT22;5807;51.606;7.624;2022-09-21T06:08:28;5.40;99.90
11501;DHT22;5807;51.606;7.624;2022-09-21T06:10:55;5.20;99.90
11501;DHT22;5807;51.606;7.624;2022-09-21T06:13:22;5.50;99.90
11501;DHT22;5807;51.606;7.624;2022-09-21T06:15:49;5.50;99.90
11501;DHT22;5807;51.606;7.624;2022-09-21T06:18:16;5.80;99.90
11501;DHT22;5807;51.606;7.624;2022-09-21T06:23:12;6.10;99.90
11501;DHT22;5807;51.606;7.624;2022-09-21T06:25:39;6.10;99.90
11501;DHT22;5807;51.606;7.624;2022-09-21T06:28:08;6.40;99.90
11501;DHT22;5807;51.606;7.624;2022-09-21T06:30:36;6.70;99.90
11501;DHT22;5807;51.606;7.624;2022-09-21T06:33:04;7.10;99.90
11501;DHT22;5807;51.606;7.624;2022-09-21T06:35:33;7.50;99.90
11501;DHT22;5807;51.606;7.624;2022-09-21T06:38:03;7.60;99.90
11501;DHT22;5807;51.606;7.624;2022-09-21T06:40:31;7.50;99.90
11501;DHT22;5807;51.606;7.624;2022-09-21T06:43:00;7.70;99.90
11501;DHT22;5807;51.606;7.624;2022-09-21T06:45:28;8.00;99.90
11501;DHT22;5807;51.606;7.624;2022-09-21T06:47:56;8.30;99.90
11501;DHT22;5807;51.606;7.624;2022-09-21T06:50:23;9.30;99.90
11501;DHT22;5807;51.606;7.624;2022-09-21T06:52:50;8.70;99.90
11501;DHT22;5807;51.606;7.624;2022-09-21T06:57:45;9.30;99.90
11501;DHT22;5807;51.606;7.624;2022-09-21T07:00:13;10.00;99.90
11501;DHT22;5807;51.606;7.624;2022-09-21T07:02:42;9.60;99.90
11501;DHT22;5807;51.606;7.624;2022-09-21T07:05:10;9.70;99.90
11501;DHT22;5807;51.606;7.624;2022-09-21T07:07:37;9.80;99.90
11501;DHT22;5807;51.606;7.624;2022-09-21T07:10:05;10.00;99.90
11501;DHT22;5807;51.606;7.624;2022-09-21T07:12:34;10.10;99.90
11501;DHT22;5807;51.606;7.624;2022-09-21T07:15:02;10.20;99.90
11501;DHT22;5807;51.606;7.624;2022-09-21T07:17:32;10.30;99.90
11501;DHT22;5807;51.606;7.624;2022-09-21T07:20:00;10.40;99.90
11501;DHT22;5807;51.606;7.624;2022-09-21T07:22:27;10.50;99.90
11501;DHT22;5807;51.606;7.624;2022-09-21T07:24:54;10.50;99.90
11501;DHT22;5807;51.606;7.624;2022-09-21T07:27:22;10.70;99.90
11501;DHT22;5807;51.606;7.624;2022-09-21T07:34:45;10.70;99.90
11501;DHT22;5807;51.606;7.624;2022-09-21T07:39:40;10.80;99.90
11501;DHT22;5807;51.606;7.624;2022-09-21T07:42:07;11.50;99.90
11501;DHT22;5807;51.606;7.624;2022-09-21T07:44:34;11.40;99.90
11501;DHT22;5807;51.606;7.624;2022-09-21T07:49:29;11.70;99.90
11501;DHT22;5807;51.606;7.624;2022-09-21T07:51:56;11.90;99.90
11501;DHT22;5807;51.606;7.624;2022-09-21T07:54:23;11.90;99.90
11501;DHT22;5807;51.606;7.624;2022-09-21T07:56:50;11.90;99.90
11501;DHT22;5807;51.606;7.624;2022-09-21T07:59:30;12.20;99.90
11501;DHT22;5807;51.606;7.624;2022-09-21T08:01:58;12.20;99.90
11501;DHT22;5807;51.606;7.624;2022-09-21T08:06:54;12.50;99.90
11501;DHT22;5807;51.606;7.624;2022-09-21T08:09:21;12.70;99.90
11501;DHT22;5807;51.606;7.624;2022-09-21T08:11:47;12.90;99.90
11501;DHT22;5807;51.606;7.624;2022-09-21T08:14:16;13.00;99.90
11501;DHT22;5807;51.606;7.624;2022-09-21T08:16:45;12.60;99.90
11501;DHT22;5807;51.606;7.624;2022-09-21T08:19:13;13.30;99.90
11501;DHT22;5807;51.606;7.624;2022-09-21T08:29:04;13.40;99.90
11501;DHT22;5807;51.606;7.624;2022-09-21T08:31:32;13.50;99.90
11501;DHT22;5807;51.606;7.624;2022-09-21T08:33:58;13.60;99.90
11501;DHT22;5807;51.606;7.624;2022-09-21T08:36:25;13.90;99.90
11501;DHT22;5807;51.606;7.624;2022-09-21T08:41:23;14.20;99.90
11501;DHT22;5807;51.606;7.624;2022-09-21T08:43:52;15.10;99.90
11501;DHT22;5807;51.606;7.624;2022-09-21T08:46:22;14.50;99.90
11501;DHT22;5807;51.606;7.624;2022-09-21T08:48:54;14.50;99.90
11501;DHT22;5807;51.606;7.624;2022-09-21T08:51:24;14.60;99.90
11501;DHT22;5807;51.606;7.624;2022-09-21T08:53:56;15.10;99.90
11501;DHT22;5807;51.606;7.624;2022-09-21T08:56:25;14.70;99.90
11501;DHT22;5807;51.606;7.624;2022-09-21T08:58:52;14.90;99.90
11501;DHT22;5807;51.606;7.624;2022-09-21T09:01:32;15.10;99.90
11501;DHT22;5807;51.606;7.624;2022-09-21T09:04:20;15.20;99.90
11501;DHT22;5807;51.606;7.624;2022-09-21T09:06:55;15.20;99.90
11501;DHT22;5807;51.606;7.624;2022-09-21T09:09:46;15.40;99.90
11501;DHT22;5807;51.606;7.624;2022-09-21T09:12:28;15.90;99.90
11501;DHT22;5807;51.606;7.624;2022-09-21T09:20:33;15.80;99.90
11501;DHT22;5807;51.606;7.624;2022-09-21T09:23:05;15.80;99.90
11501;DHT22;5807;51.606;7.624;2022-09-21T09:25:37;15.70;99.90
11501;DHT22;5807;51.606;7.624;2022-09-21T09:28:16;16.30;99.90
11501;DHT22;5807;51.606;7.624;2022-09-21T09:33:15;16.10;99.90
11501;DHT22;5807;51.606;7.624;2022-09-21T09:35:48;16.20;99.90
11501;DHT22;5807;51.606;7.624;2022-09-21T09:38:23;16.50;99.90
11501;DHT22;5807;51.606;7.624;2022-09-21T09:41:05;16.50;99.90
11501;DHT22;5807;51.606;7.624;2022-09-21T09:43:43;16.50;99.90
11501;DHT22;5807;51.606;7.624;2022-09-21T09:46:19;16.60;99.90
11501;DHT22;5807;51.606;7.624;2022-09-21T09:49:27;16.90;99.90
11501;DHT22;5807;51.606;7.624;2022-09-21T09:54:25;16.90;99.90
11501;DHT22;5807;51.606;7.624;2022-09-21T09:56:53;17.00;99.90
11501;DHT22;5807;51.606;7.624;2022-09-21T09:59:27;17.20;99.90
11501;DHT22;5807;51.606;7.624;2022-09-21T10:02:00;17.30;99.90
11501;DHT22;5807;51.606;7.624;2022-09-21T10:04:27;17.50;99.90
11501;DHT22;5807;51.606;7.624;2022-09-21T10:06:54;17.50;99.90
11501;DHT22;5807;51.606;7.624;2022-09-21T10:09:26;17.20;99.90
11501;DHT22;5807;51.606;7.624;2022-09-21T10:11:57;17.10;99.90
11501;DHT22;5807;51.606;7.624;2022-09-21T10:14:26;16.40;99.90
11501;DHT22;5807;51.606;7.624;2022-09-21T10:16:55;16.20;99.90
11501;DHT22;5807;51.606;7.624;2022-09-21T10:19:26;16.40;99.90
11501;DHT22;5807;51.606;7.624;2022-09-21T10:21:56;16.80;99.90
11501;DHT22;5807;51.606;7.624;2022-09-21T10:24:24;17.30;99.90
11501;DHT22;5807;51.606;7.624;2022-09-21T10:26:55;17.40;99.90
11501;DHT22;5807;51.606;7.624;2022-09-21T10:29:37;17.50;99.90
11501;DHT22;5807;51.606;7.624;2022-09-21T10:32:16;17.50;99.90
11501;DHT22;5807;51.606;7.624;2022-09-21T10:35:12;17.80;99.90
11501;DHT22;5807;51.606;7.624;2022-09-21T10:37:41;18.00;99.90
11501;DHT22;5807;51.606;7.624;2022-09-21T10:40:25;17.40;99.90
11501;DHT22;5807;51.606;7.624;2022-09-21T10:42:55;17.40;99.90
11501;DHT22;5807;51.606;7.624;2022-09-21T10:45:24;18.70;99.90
11501;DHT22;5807;51.606;7.624;2022-09-21T10:47:54;18.10;99.90
11501;DHT22;5807;51.606;7.624;2022-09-21T10:50:25;18.10;99.90
11501;DHT22;5807;51.606;7.624;2022-09-21T10:52:58;17.80;99.90
11501;DHT22;5807;51.606;7.624;2022-09-21T10:55:27;17.60;99.90
11501;DHT22;5807;51.606;7.624;2022-09-21T10:57:56;17.60;99.90
11501;DHT22;5807;51.606;7.624;2022-09-21T11:00:32;17.70;99.90
11501;DHT22;5807;51.606;7.624;2022-09-21T11:03:37;18.20;99.90
11501;DHT22;5807;51.606;7.624;2022-09-21T11:06:14;18.60;99.80
11501;DHT22;5807;51.606;7.624;2022-09-21T11:08:45;19.00;99.20
11501;DHT22;5807;51.606;7.624;2022-09-21T11:11:36;19.20;99.30
11501;DHT22;5807;51.606;7.624;2022-09-21T11:14:13;19.50;95.70
11501;DHT22;5807;51.606;7.624;2022-09-21T11:16:47;19.50;96.70
11501;DHT22;5807;51.606;7.624;2022-09-21T11:19:21;19.60;96.90
11501;DHT22;5807;51.606;7.624;2022-09-21T11:21:54;19.80;96.30
11501;DHT22;5807;51.606;7.624;2022-09-21T11:24:29;19.90;96.50
11501;DHT22;5807;51.606;7.624;2022-09-21T11:27:02;20.00;95.20
11501;DHT22;5807;51.606;7.624;2022-09-21T11:29:37;20.20;95.80
11501;DHT22;5807;51.606;7.624;2022-09-21T11:32:28;20.20;94.00
11501;DHT22;5807;51.606;7.624;2022-09-21T11:35:16;19.50;94.00
11501;DHT22;5807;51.606;7.624;2022-09-21T11:37:59;19.10;94.60
11501;DHT22;5807;51.606;7.624;2022-09-21T11:43:34;19.40;94.20
11501;DHT22;5807;51.606;7.624;2022-09-21T11:46:11;19.60;95.30
11501;DHT22;5807;51.606;7.624;2022-09-21T11:48:50;19.10;91.00
11501;DHT22;5807;51.606;7.624;2022-09-21T11:51:31;18.50;92.50
11501;DHT22;5807;51.606;7.624;2022-09-21T11:54:21;18.40;95.40
11501;DHT22;5807;51.606;7.624;2022-09-21T11:56:55;18.80;94.30
11501;DHT22;5807;51.606;7.624;2022-09-21T11:59:38;19.40;96.00
11501;DHT22;5807;51.606;7.624;2022-09-21T12:02:35;19.70;91.90
11501;DHT22;5807;51.606;7.624;2022-09-21T12:05:14;20.00;90.50
11501;DHT22;5807;51.606;7.624;2022-09-21T12:08:05;19.90;87.90
11501;DHT22;5807;51.606;7.624;2022-09-21T12:10:43;19.40;90.00
11501;DHT22;5807;51.606;7.624;2022-09-21T12:13:19;18.80;90.30
11501;DHT22;5807;51.606;7.624;2022-09-21T12:15:52;18.20;88.00
11501;DHT22;5807;51.606;7.624;2022-09-21T12:18:29;17.70;91.60
11501;DHT22;5807;51.606;7.624;2022-09-21T12:21:07;17.30;90.60
11501;DHT22;5807;51.606;7.624;2022-09-21T12:23:40;17.20;92.00
11501;DHT22;5807;51.606;7.624;2022-09-21T12:26:08;17.50;87.00
11501;DHT22;5807;51.606;7.624;2022-09-21T12:28:39;18.30;90.30
11501;DHT22;5807;51.606;7.624;2022-09-21T12:31:13;18.60;90.80
11501;DHT22;5807;51.606;7.624;2022-09-21T12:33:47;17.80;92.70
11501;DHT22;5807;51.606;7.624;2022-09-21T12:36:17;17.70;91.90
11501;DHT22;5807;51.606;7.624;2022-09-21T12:38:51;17.40;91.10
11501;DHT22;5807;51.606;7.624;2022-09-21T12:41:25;17.90;93.40
11501;DHT22;5807;51.606;7.624;2022-09-21T12:43:59;18.80;92.50
11501;DHT22;5807;51.606;7.624;2022-09-21T12:46:31;18.50;92.00
11501;DHT22;5807;51.606;7.624;2022-09-21T12:49:07;18.30;91.60
11501;DHT22;5807;51.606;7.624;2022-09-21T12:51:42;18.00;90.70
11501;DHT22;5807;51.606;7.624;2022-09-21T12:54:18;17.10;92.20
11501;DHT22;5807;51.606;7.624;2022-09-21T12:56:57;16.50;92.40
11501;DHT22;5807;51.606;7.624;2022-09-21T12:59:34;16.40;94.60
11501;DHT22;5807;51.606;7.624;2022-09-21T13:02:11;16.30;93.40
11501;DHT22;5807;51.606;7.624;2022-09-21T13:04:52;16.80;93.70
11501;DHT22;5807;51.606;7.624;2022-09-21T13:10:36;18.30;88.10
11501;DHT22;5807;51.606;7.624;2022-09-21T13:13:06;18.60;86.90
11501;DHT22;5807;51.606;7.624;2022-09-21T13:15:42;18.80;85.10
11501;DHT22;5807;51.606;7.624;2022-09-21T13:18:17;19.10;85.40
11501;DHT22;5807;51.606;7.624;2022-09-21T13:20:47;19.30;90.40
11501;DHT22;5807;51.606;7.624;2022-09-21T13:23:19;19.40;86.70
11501;DHT22;5807;51.606;7.624;2022-09-21T13:25:49;19.40;89.70
11501;DHT22;5807;51.606;7.624;2022-09-21T13:28:18;19.70;82.60
11501;DHT22;5807;51.606;7.624;2022-09-21T13:30:49;19.80;86.50
11501;DHT22;5807;51.606;7.624;2022-09-21T13:33:39;19.90;80.70
11501;DHT22;5807;51.606;7.624;2022-09-21T13:36:32;19.80;83.00
11501;DHT22;5807;51.606;7.624;2022-09-21T13:39:13;19.70;75.90
11501;DHT22;5807;51.606;7.624;2022-09-21T13:41:40;19.90;80.90
11501;DHT22;5807;51.606;7.624;2022-09-21T13:44:19;19.70;82.30
11501;DHT22;5807;51.606;7.624;2022-09-21T13:46:56;19.70;78.70
11501;DHT22;5807;51.606;7.624;2022-09-21T13:49:45;19.80;78.20
11501;DHT22;5807;51.606;7.624;2022-09-21T13:52:33;19.70;77.20
11501;DHT22;5807;51.606;7.624;2022-09-21T13:55:13;19.80;77.50
11501;DHT22;5807;51.606;7.624;2022-09-21T13:57:45;19.80;74.90
11501;DHT22;5807;51.606;7.624;2022-09-21T14:00:33;19.70;75.50
11501;DHT22;5807;51.606;7.624;2022-09-21T14:03:05;20.50;77.60
11501;DHT22;5807;51.606;7.624;2022-09-21T14:05:37;19.80;79.80
11501;DHT22;5807;51.606;7.624;2022-09-21T14:08:19;19.70;80.20
11501;DHT22;5807;51.606;7.624;2022-09-21T14:10:53;19.80;75.20
11501;DHT22;5807;51.606;7.624;2022-09-21T14:13:39;19.70;78.40
11501;DHT22;5807;51.606;7.624;2022-09-21T14:16:51;19.80;77.70
11501;DHT22;5807;51.606;7.624;2022-09-21T14:22:41;19.70;76.90
11501;DHT22;5807;51.606;7.624;2022-09-21T14:25:51;19.90;78.20
11501;DHT22;5807;51.606;7.624;2022-09-21T14:28:37;19.80;75.60
11501;DHT22;5807;51.606;7.624;2022-09-21T14:31:13;19.90;80.90
11501;DHT22;5807;51.606;7.624;2022-09-21T14:33:44;20.10;75.30
11501;DHT22;5807;51.606;7.624;2022-09-21T14:36:17;20.30;79.10
11501;DHT22;5807;51.606;7.624;2022-09-21T14:39:00;20.10;77.50
11501;DHT22;5807;51.606;7.624;2022-09-21T14:41:37;20.00;77.80
11501;DHT22;5807;51.606;7.624;2022-09-21T14:44:04;19.90;80.40
11501;DHT22;5807;51.606;7.624;2022-09-21T14:46:56;19.90;77.00
11501;DHT22;5807;51.606;7.624;2022-09-21T14:49:39;20.00;77.70
11501;DHT22;5807;51.606;7.624;2022-09-21T14:52:19;19.90;77.80
11501;DHT22;5807;51.606;7.624;2022-09-21T14:54:52;19.90;76.60
11501;DHT22;5807;51.606;7.624;2022-09-21T14:57:44;19.90;81.60
11501;DHT22;5807;51.606;7.624;2022-09-21T15:00:17;20.00;78.00
11501;DHT22;5807;51.606;7.624;2022-09-21T15:02:55;20.10;77.80
11501;DHT22;5807;51.606;7.624;2022-09-21T15:05:32;20.30;82.40
11501;DHT22;5807;51.606;7.624;2022-09-21T15:08:31;20.00;78.80
11501;DHT22;5807;51.606;7.624;2022-09-21T15:11:25;20.00;81.10
11501;DHT22;5807;51.606;7.624;2022-09-21T15:14:09;19.80;83.50
11501;DHT22;5807;51.606;7.624;2022-09-21T15:16:40;19.80;80.10
11501;DHT22;5807;51.606;7.624;2022-09-21T15:19:13;19.70;77.80
11501;DHT22;5807;51.606;7.624;2022-09-21T15:21:42;19.70;80.90
11501;DHT22;5807;51.606;7.624;2022-09-21T15:24:20;19.70;77.70
11501;DHT22;5807;51.606;7.624;2022-09-21T15:26:49;19.50;78.20
11501;DHT22;5807;51.606;7.624;2022-09-21T15:29:25;19.40;79.10
11501;DHT22;5807;51.606;7.624;2022-09-21T15:31:53;19.20;78.70
11501;DHT22;5807;51.606;7.624;2022-09-21T15:34:21;19.20;82.20
11501;DHT22;5807;51.606;7.624;2022-09-21T15:36:48;19.00;81.20
11501;DHT22;5807;51.606;7.624;2022-09-21T15:39:23;18.70;81.20
11501;DHT22;5807;51.606;7.624;2022-09-21T15:44:44;18.40;82.50
11501;DHT22;5807;51.606;7.624;2022-09-21T15:47:14;18.50;80.50
11501;DHT22;5807;51.606;7.624;2022-09-21T15:49:42;18.60;82.60
11501;DHT22;5807;51.606;7.624;2022-09-21T15:52:12;18.00;82.40
11501;DHT22;5807;51.606;7.624;2022-09-21T15:54:43;17.80;81.10
11501;DHT22;5807;51.606;7.624;2022-09-21T15:57:32;17.90;83.50
11501;DHT22;5807;51.606;7.624;2022-09-21T16:00:20;17.60;87.70
11501;DHT22;5807;51.606;7.624;2022-09-21T16:02:56;17.50;84.40
11501;DHT22;5807;51.606;7.624;2022-09-21T16:05:30;17.30;84.50
11501;DHT22;5807;51.606;7.624;2022-09-21T16:08:18;17.20;84.80
11501;DHT22;5807;51.606;7.624;2022-09-21T16:10:47;17.10;87.50
11501;DHT22;5807;51.606;7.624;2022-09-21T16:13:18;17.00;88.70
11501;DHT22;5807;51.606;7.624;2022-09-21T16:16:05;16.80;87.80
11501;DHT22;5807;51.606;7.624;2022-09-21T16:18:40;16.80;86.00
11501;DHT22;5807;51.606;7.624;2022-09-21T16:21:14;16.70;88.70
11501;DHT22;5807;51.606;7.624;2022-09-21T16:23:41;16.50;88.40
11501;DHT22;5807;51.606;7.624;2022-09-21T16:26:17;16.40;89.00
11501;DHT22;5807;51.606;7.624;2022-09-21T16:28:44;16.40;90.30
11501;DHT22;5807;51.606;7.624;2022-09-21T16:31:28;16.20;90.60
11501;DHT22;5807;51.606;7.624;2022-09-21T16:34:01;16.00;90.40
11501;DHT22;5807;51.606;7.624;2022-09-21T16:36:38;16.00;91.00
11501;DHT22;5807;51.606;7.624;2022-09-21T16:39:11;16.20;91.50
11501;DHT22;5807;51.606;7.624;2022-09-21T16:41:41;16.00;90.40
11501;DHT22;5807;51.606;7.624;2022-09-21T16:44:10;16.00;91.00
11501;DHT22;5807;51.606;7.624;2022-09-21T16:46:47;15.70;91.50
11501;DHT22;5807;51.606;7.624;2022-09-21T16:49:17;15.70;92.00
11501;DHT22;5807;51.606;7.624;2022-09-21T16:51:46;15.50;91.80
11501;DHT22;5807;51.606;7.624;2022-09-21T16:54:14;14.50;91.60
11501;DHT22;5807;51.606;7.624;2022-09-21T16:56:41;15.30;92.00
11501;DHT22;5807;51.606;7.624;2022-09-21T16:59:15;15.50;93.10
11501;DHT22;5807;51.606;7.624;2022-09-21T17:01:44;15.30;92.60
11501;DHT22;5807;51.606;7.624;2022-09-21T17:04:12;15.10;93.50
11501;DHT22;5807;51.606;7.624;2022-09-21T17:06:39;15.30;94.60
11501;DHT22;5807;51.606;7.624;2022-09-21T17:09:24;14.90;94.10
11501;DHT22;5807;51.606;7.624;2022-09-21T17:11:52;14.90;94.60
11501;DHT22;5807;51.606;7.624;2022-09-21T17:14:20;15.00;96.50
11501;DHT22;5807;51.606;7.624;2022-09-21T17:16:49;14.70;96.20
11501;DHT22;5807;51.606;7.624;2022-09-21T17:19:18;14.60;97.20
11501;DHT22;5807;51.606;7.624;2022-09-21T17:21:45;14.20;97.60
11501;DHT22;5807;51.606;7.624;2022-09-21T17:24:12;13.70;98.60
11501;DHT22;5807;51.606;7.624;2022-09-21T17:26:39;14.00;99.90
11501;DHT22;5807;51.606;7.624;2022-09-21T17:29:16;14.80;99.90
11501;DHT22;5807;51.606;7.624;2022-09-21T17:31:45;15.10;99.90
11501;DHT22;5807;51.606;7.624;2022-09-21T17:34:16;13.90;99.90
11501;DHT22;5807;51.606;7.624;2022-09-21T17:36:45;13.80;99.90
11501;DHT22;5807;51.606;7.624;2022-09-21T17:39:12;13.20;99.90
11501;DHT22;5807;51.606;7.624;2022-09-21T17:41:45;12.90;99.90
11501;DHT22;5807;51.606;7.624;2022-09-21T17:44:21;12.80;99.90
11501;DHT22;5807;51.606;7.624;2022-09-21T17:46:56;12.70;99.90
11501;DHT22;5807;51.606;7.624;2022-09-21T17:49:26;12.60;99.90
11501;DHT22;5807;51.606;7.624;2022-09-21T17:51:53;12.50;99.90
11501;DHT22;5807;51.606;7.624;2022-09-21T17:54:38;12.40;99.90
11501;DHT22;5807;51.606;7.624;2022-09-21T17:57:12;12.20;99.90
11501;DHT22;5807;51.606;7.624;2022-09-21T17:59:47;12.10;99.90
11501;DHT22;5807;51.606;7.624;2022-09-21T18:02:19;12.00;99.90
11501;DHT22;5807;51.606;7.624;2022-09-21T18:04:49;11.90;99.90
11501;DHT22;5807;51.606;7.624;2022-09-21T18:07:17;12.40;99.90
11501;DHT22;5807;51.606;7.624;2022-09-21T18:09:44;11.70;99.90
11501;DHT22;5807;51.606;7.624;2022-09-21T18:12:45;11.60;99.90